createdAt,value
2019-05-13T00:01:44.471Z,90.45
2019-05-13T00:04:16.115Z,89.89
2019-05-13T00:06:54.105Z,89.45
2019-05-13T00:09:24.520Z,89.56
2019-05-13T00:11:57.386Z,89.87
2019-05-13T00:14:28.844Z,89.92
2019-05-13T00:17:04.220Z,90.03
2019-05-13T00:19:36.123Z,90.21
2019-05-13T00:22:07.833Z,90.00
2019-05-13T00:24:39.333Z,89.94
2019-05-13T00:27:11.488Z,89.58
2019-05-13T00:29:44.398Z,89.72
2019-05-13T00:32:16.031Z,89.88
2019-05-13T00:34:47.539Z,90.10
2019-05-13T00:37:20.119Z,90.36
2019-05-13T00:39:51.760Z,90.57
2019-05-13T00:42:24.542Z,90.49
2019-05-13T00:44:57.329Z,90.30
2019-05-13T00:47:29.919Z,90.56
2019-05-13T00:50:04.943Z,91.03
2019-05-13T00:52:37.412Z,91.17
2019-05-13T00:55:10.076Z,91.45
2019-05-13T00:57:43.649Z,91.40
2019-05-13T01:00:15.307Z,91.44
2019-05-13T01:02:46.804Z,91.27
2019-05-13T01:05:23.447Z,91.07
2019-05-13T01:07:58.503Z,91.04
2019-05-13T01:10:34.219Z,90.98
2019-05-13T01:13:08.962Z,91.09
2019-05-13T01:15:40.584Z,91.08
2019-05-13T01:18:14.322Z,90.97
2019-05-13T01:20:46.207Z,91.05
2019-05-13T01:23:20.908Z,90.91
2019-05-13T01:25:54.513Z,90.85
2019-05-13T01:28:26.678Z,90.75
2019-05-13T01:30:58.285Z,89.73
2019-05-13T01:33:32.008Z,89.54
2019-05-13T01:36:05.200Z,89.99
2019-05-13T01:38:37.140Z,89.97
2019-05-13T01:41:09.918Z,89.48
2019-05-13T01:43:43.935Z,89.89
2019-05-13T01:46:15.274Z,89.98
2019-05-13T01:48:46.926Z,90.61
2019-05-13T01:51:19.157Z,90.23
2019-05-13T01:53:53.267Z,90.13
2019-05-13T01:56:24.621Z,90.18
2019-05-13T01:58:57.193Z,90.00
2019-05-13T02:01:33.692Z,89.87
2019-05-13T02:04:05.273Z,90.30
2019-05-13T02:06:37.864Z,90.46
2019-05-13T02:09:14.166Z,90.58
2019-05-13T02:11:46.711Z,90.12
2019-05-13T02:14:18.446Z,89.85
2019-05-13T02:16:49.995Z,89.63
2019-05-13T02:19:24.439Z,89.52
2019-05-13T02:21:55.922Z,88.65
2019-05-13T02:24:27.584Z,88.25
2019-05-13T02:27:03.466Z,88.82
2019-05-13T02:29:34.655Z,89.63
2019-05-13T02:32:06.151Z,88.74
2019-05-13T02:34:37.796Z,88.32
2019-05-13T02:37:12.571Z,87.22
2019-05-13T02:39:43.008Z,86.71
2019-05-13T02:42:15.684Z,86.82
2019-05-13T02:44:47.212Z,86.87
2019-05-13T02:47:22.600Z,87.05
2019-05-13T02:49:54.081Z,86.07
2019-05-13T02:52:26.084Z,85.51
2019-05-13T02:54:57.645Z,85.45
2019-05-13T02:57:32.723Z,85.10
2019-05-13T03:00:06.707Z,84.98
2019-05-13T03:02:38.282Z,84.71
2019-05-13T03:05:13.639Z,84.19
2019-05-13T03:07:46.183Z,84.13
2019-05-13T03:10:22.170Z,84.43
2019-05-13T03:12:53.432Z,84.42
2019-05-13T03:15:26.167Z,84.59
2019-05-13T03:18:06.853Z,84.41
2019-05-13T03:20:38.478Z,84.59
2019-05-13T03:23:13.064Z,84.14
2019-05-13T03:25:44.252Z,84.68
2019-05-13T03:28:15.991Z,84.92
2019-05-13T03:30:56.265Z,84.42
2019-05-13T03:33:27.958Z,84.44
2019-05-13T03:35:58.232Z,83.86
2019-05-13T03:38:32.916Z,84.10
2019-05-13T03:41:05.561Z,84.46
2019-05-13T03:43:42.823Z,84.22
2019-05-13T03:46:13.760Z,83.87
2019-05-13T03:48:47.458Z,84.30
2019-05-13T03:51:21.961Z,84.14
2019-05-13T03:53:53.537Z,84.02
2019-05-13T03:56:25.480Z,84.56
2019-05-13T03:58:57.025Z,84.33
2019-05-13T04:01:32.267Z,83.63
2019-05-13T04:04:03.294Z,83.19
2019-05-13T04:06:36.207Z,83.02
2019-05-13T04:09:22.309Z,82.64
2019-05-13T04:11:42.352Z,82.94
2019-05-13T04:14:14.085Z,83.01
2019-05-13T04:16:45.692Z,82.23
2019-05-13T04:19:18.243Z,80.97
2019-05-13T04:21:52.602Z,80.40
2019-05-13T04:24:23.324Z,79.50
2019-05-13T04:26:56.855Z,78.17
2019-05-13T04:29:28.363Z,76.51
2019-05-13T04:32:02.280Z,74.43
2019-05-13T04:34:34.279Z,73.96
2019-05-13T04:37:05.923Z,70.75
2019-05-13T04:39:47.610Z,64.53
2019-05-13T04:42:12.407Z,61.72
2019-05-13T04:44:44.086Z,57.93
2019-05-13T04:47:15.629Z,58.15
2019-05-13T04:49:48.860Z,58.10
2019-05-13T04:52:22.267Z,60.34
2019-05-13T04:54:54.760Z,61.31
2019-05-13T04:57:26.350Z,66.53
2019-05-13T04:59:57.987Z,66.64
2019-05-13T05:02:55.757Z,67.90
2019-05-13T05:05:36.127Z,59.79
2019-05-13T05:08:47.531Z,57.25
2019-05-13T05:11:52.699Z,58.21
2019-05-13T05:15:02.867Z,61.30
2019-05-13T05:17:52.357Z,61.27
2019-05-13T05:20:52.042Z,64.17
2019-05-13T05:23:35.519Z,65.83
2019-05-13T05:26:43.709Z,67.57
2019-05-13T05:29:42.237Z,67.57
2019-05-13T05:32:31.861Z,70.48
2019-05-13T05:35:38.674Z,69.25
2019-05-13T05:38:31.671Z,69.74
2019-05-13T05:41:05.460Z,70.57
2019-05-13T05:43:42.334Z,70.45
2019-05-13T05:46:14.741Z,70.58
2019-05-13T05:48:52.960Z,69.01
2019-05-13T05:51:25.784Z,68.54
2019-05-13T05:54:02.454Z,68.68
2019-05-13T05:56:33.798Z,68.01
2019-05-13T05:59:05.484Z,65.33
2019-05-13T06:01:41.602Z,66.12
2019-05-13T06:04:16.037Z,65.20
2019-05-13T06:06:48.037Z,64.23
2019-05-13T06:09:21.590Z,63.29
2019-05-13T06:11:53.946Z,58.11
2019-05-13T06:14:26.638Z,59.71
2019-05-13T06:17:02.650Z,60.95
2019-05-13T06:19:33.708Z,61.89
2019-05-13T06:22:05.379Z,62.49
2019-05-13T06:24:38.697Z,63.21
2019-05-13T06:27:11.830Z,62.45
2019-05-13T06:29:44.109Z,59.79
2019-05-13T06:32:22.452Z,58.30
2019-05-13T06:34:52.296Z,58.04
2019-05-13T06:37:23.839Z,54.93
2019-05-13T06:39:56.493Z,52.98
2019-05-13T06:42:29.035Z,50.47
2019-05-13T06:45:04.518Z,50.93
2019-05-13T06:47:36.384Z,47.05
2019-05-13T06:50:08.148Z,49.13
2019-05-13T06:52:42.449Z,48.58
2019-05-13T06:55:17.897Z,52.53
2019-05-13T06:57:51.735Z,48.18
2019-05-13T07:00:22.951Z,48.35
2019-05-13T07:02:54.575Z,52.29
2019-05-13T07:05:26.204Z,47.66
2019-05-13T07:07:57.872Z,47.40
2019-05-13T07:10:31.924Z,50.53
2019-05-13T07:13:02.962Z,52.44
2019-05-13T07:15:37.366Z,50.38
2019-05-13T07:18:08.189Z,49.22
2019-05-13T07:20:42.400Z,51.94
2019-05-13T07:23:13.064Z,54.29
2019-05-13T07:25:44.672Z,51.93
2019-05-13T07:28:16.291Z,50.71
2019-05-13T07:30:48.424Z,52.29
2019-05-13T07:33:21.390Z,53.75
2019-05-13T07:35:58.051Z,54.88
2019-05-13T07:38:28.552Z,55.18
2019-05-13T07:41:04.434Z,55.66
2019-05-13T07:43:37.181Z,54.80
2019-05-13T07:46:08.813Z,52.62
2019-05-13T07:48:41.623Z,49.21
2019-05-13T07:51:22.174Z,48.22
2019-05-13T07:53:53.678Z,43.13
2019-05-13T07:56:25.199Z,44.19
2019-05-13T07:58:57.064Z,45.98
2019-05-13T08:01:28.808Z,45.59
2019-05-13T08:04:02.162Z,46.65
2019-05-13T08:06:33.785Z,47.42
2019-05-13T08:09:08.377Z,45.69
2019-05-13T08:11:58.214Z,45.36
2019-05-13T08:14:15.269Z,44.71
2019-05-13T08:16:52.265Z,44.80
2019-05-13T08:19:26.670Z,47.41
2019-05-13T08:21:58.263Z,47.59
2019-05-13T08:24:31.426Z,48.31
2019-05-13T08:27:04.253Z,49.17
2019-05-13T08:29:42.188Z,50.16
2019-05-13T08:32:15.038Z,51.17
2019-05-13T08:34:52.505Z,50.08
2019-05-13T08:37:21.669Z,50.96
2019-05-13T08:39:53.487Z,49.43
2019-05-13T08:42:25.277Z,47.13
2019-05-13T08:45:01.881Z,44.82
2019-05-13T08:47:34.845Z,42.02
2019-05-13T08:50:11.977Z,41.01
2019-05-13T08:52:45.019Z,41.88
2019-05-13T08:55:17.677Z,41.23
2019-05-13T08:57:53.220Z,40.65
2019-05-13T09:00:52.538Z,41.09
2019-05-13T09:03:23.905Z,41.95
2019-05-13T09:05:59.320Z,42.03
2019-05-13T09:08:42.435Z,42.44
2019-05-13T09:11:16.242Z,43.24
2019-05-13T09:13:51.577Z,43.54
2019-05-13T09:16:26.202Z,44.76
2019-05-13T09:19:03.676Z,43.87
2019-05-13T09:21:34.070Z,44.17
2019-05-13T09:24:20.640Z,44.34
2019-05-13T09:26:42.154Z,44.82
2019-05-13T09:29:13.667Z,45.38
2019-05-13T09:31:47.464Z,45.95
2019-05-13T09:34:21.905Z,45.64
2019-05-13T09:36:58.918Z,45.72
2019-05-13T09:39:37.179Z,44.68
2019-05-13T09:42:12.654Z,43.19
2019-05-13T09:44:52.294Z,44.27
2019-05-13T09:47:23.133Z,43.62
2019-05-13T09:49:56.913Z,42.97
2019-05-13T09:52:28.669Z,43.50
2019-05-13T09:55:03.378Z,43.40
2019-05-13T09:57:36.647Z,43.85
2019-05-13T10:00:11.998Z,43.82
2019-05-13T10:02:46.234Z,44.35
2019-05-13T10:05:33.734Z,43.91
2019-05-13T10:08:22.319Z,43.44
2019-05-13T10:11:15.631Z,42.67
2019-05-13T10:13:48.398Z,43.70
2019-05-13T10:16:23.714Z,45.20
2019-05-13T10:18:55.548Z,45.55
2019-05-13T10:21:28.157Z,45.26
2019-05-13T10:23:59.608Z,45.51
2019-05-13T10:26:32.242Z,46.21
2019-05-13T10:29:04.190Z,48.31
2019-05-13T10:31:36.211Z,49.33
2019-05-13T10:34:09.489Z,55.35
2019-05-13T10:36:42.562Z,58.81
2019-05-13T10:39:14.310Z,60.84
2019-05-13T10:41:48.935Z,60.30
2019-05-13T10:44:25.582Z,58.62
2019-05-13T10:46:57.994Z,59.47
2019-05-13T10:49:33.127Z,59.21
2019-05-13T10:52:03.953Z,59.07
2019-05-13T10:54:41.722Z,58.30
2019-05-13T10:59:48.366Z,57.97
2019-05-13T11:02:22.323Z,55.20
2019-05-13T11:04:54.001Z,53.77
2019-05-13T11:07:27.298Z,53.59
2019-05-13T11:10:02.309Z,53.30
2019-05-13T11:12:34.453Z,53.95
2019-05-13T11:15:07.245Z,53.75
2019-05-13T11:17:42.830Z,52.84
2019-05-13T11:20:15.675Z,56.05
2019-05-13T11:22:52.199Z,53.93
2019-05-13T11:25:24.153Z,53.40
2019-05-13T11:27:58.490Z,52.64
2019-05-13T11:30:32.005Z,51.01
2019-05-13T11:33:10.233Z,50.67
2019-05-13T11:35:59.006Z,50.91
2019-05-13T11:38:32.669Z,52.72
2019-05-13T11:41:04.133Z,50.56
2019-05-13T11:43:35.768Z,52.04
2019-05-13T11:46:09.402Z,52.11
2019-05-13T11:48:55.651Z,50.08
2019-05-13T11:51:31.954Z,49.84
2019-05-13T11:54:05.054Z,49.80
2019-05-13T11:56:48.424Z,49.99
2019-05-13T11:59:14.461Z,50.37
2019-05-13T12:01:49.093Z,51.00
2019-05-13T12:04:24.081Z,50.65
2019-05-13T12:06:55.624Z,52.09
2019-05-13T12:09:31.967Z,53.20
2019-05-13T12:12:13.245Z,50.74
2019-05-13T12:15:18.094Z,50.66
2019-05-13T12:17:17.498Z,50.60
2019-05-13T12:19:49.137Z,51.82
2019-05-13T12:22:22.973Z,51.54
2019-05-13T12:25:02.108Z,51.49
2019-05-13T12:27:34.053Z,54.91
2019-05-13T12:30:08.021Z,55.13
2019-05-13T12:32:43.766Z,56.41
2019-05-13T12:35:14.863Z,57.66
2019-05-13T12:37:53.033Z,59.69
2019-05-13T12:40:23.199Z,61.26
2019-05-13T12:42:56.082Z,64.67
2019-05-13T12:45:30.340Z,69.42
2019-05-13T12:48:03.701Z,69.20
2019-05-13T12:50:42.494Z,71.25
2019-05-13T12:53:16.300Z,76.50
2019-05-13T12:55:55.746Z,78.85
2019-05-13T12:58:28.666Z,81.71
2019-05-13T13:01:07.247Z,77.88
2019-05-13T13:03:52.108Z,74.06
2019-05-13T13:06:36.156Z,75.92
2019-05-13T13:09:03.210Z,69.64
2019-05-13T13:11:42.559Z,68.78
2019-05-13T13:14:18.389Z,71.21
2019-05-13T13:16:53.873Z,69.55
2019-05-13T13:19:26.098Z,72.49
2019-05-13T13:22:04.780Z,71.16
2019-05-13T13:24:33.228Z,70.13
2019-05-13T13:27:04.666Z,66.25
2019-05-13T13:29:38.179Z,69.81
2019-05-13T13:32:13.472Z,69.88
2019-05-13T13:34:46.968Z,66.00
2019-05-13T13:37:18.744Z,65.62
2019-05-13T13:39:55.081Z,65.95
2019-05-13T13:42:26.660Z,66.16
2019-05-13T13:44:58.678Z,63.77
2019-05-13T13:47:33.211Z,63.72
2019-05-13T13:50:05.697Z,62.07
2019-05-13T13:52:38.560Z,63.44
2019-05-13T13:55:15.298Z,62.66
2019-05-13T13:57:47.055Z,63.33
2019-05-13T14:00:34.365Z,62.22
2019-05-13T14:02:56.857Z,62.31
2019-05-13T14:05:29.649Z,62.25
2019-05-13T14:06:26.942Z,58.31
2019-05-13T14:08:03.967Z,62.15
2019-05-13T14:10:35.714Z,62.08
2019-05-13T14:13:12.511Z,62.49
2019-05-13T14:15:45.422Z,68.06
2019-05-13T14:18:18.268Z,65.56
2019-05-13T14:20:52.896Z,66.62
2019-05-13T14:23:23.755Z,65.09
2019-05-13T14:25:56.514Z,65.95
2019-05-13T14:28:29.189Z,63.58
2019-05-13T14:31:02.840Z,66.23
2019-05-13T14:33:35.541Z,64.79
2019-05-13T14:36:07.762Z,64.57
2019-05-13T14:38:39.888Z,62.62
2019-05-13T14:41:12.443Z,62.55
2019-05-13T14:43:46.341Z,62.57
2019-05-13T14:46:23.236Z,62.88
2019-05-13T14:48:52.443Z,63.12
2019-05-13T14:51:24.190Z,61.57
2019-05-13T14:53:58.106Z,61.82
2019-05-13T14:56:32.387Z,64.51
2019-05-13T14:59:04.615Z,63.83
2019-05-13T15:01:37.531Z,62.33
2019-05-13T15:04:11.973Z,63.87
2019-05-13T15:06:42.748Z,64.54
2019-05-13T15:09:14.344Z,63.20
2019-05-13T15:11:46.307Z,62.70
2019-05-13T15:14:18.503Z,62.63
2019-05-13T15:17:02.366Z,60.28
2019-05-13T15:19:24.155Z,63.59
2019-05-13T15:21:56.796Z,62.37
2019-05-13T15:24:32.298Z,61.76
2019-05-13T15:27:04.401Z,61.89
2019-05-13T15:29:36.111Z,64.09
2019-05-13T15:32:07.837Z,62.18
2019-05-13T15:34:42.073Z,64.46
2019-05-13T15:37:13.051Z,63.66
2019-05-13T15:39:47.817Z,62.36
2019-05-13T15:42:21.380Z,61.71
2019-05-13T15:44:53.189Z,61.72
2019-05-13T15:47:26.922Z,61.85
2019-05-13T15:50:02.205Z,61.66
2019-05-13T15:52:36.314Z,63.43
2019-05-13T15:55:13.644Z,64.08
2019-05-13T15:57:47.896Z,63.32
2019-05-13T16:00:32.264Z,62.86
2019-05-13T16:03:05.000Z,63.43
2019-05-13T16:05:37.684Z,64.61
2019-05-13T16:08:11.977Z,64.51
2019-05-13T16:10:43.810Z,64.93
2019-05-13T16:13:15.376Z,66.87
2019-05-13T16:15:47.187Z,67.44
2019-05-13T16:18:22.215Z,68.65
2019-05-13T16:20:54.082Z,68.74
2019-05-13T16:23:27.813Z,69.49
2019-05-13T16:26:01.615Z,69.09
2019-05-13T16:28:33.143Z,69.22
2019-05-13T16:31:07.415Z,70.44
2019-05-13T16:33:41.584Z,70.40
2019-05-13T16:36:12.981Z,70.79
2019-05-13T16:38:51.148Z,70.78
2019-05-13T16:41:23.513Z,72.23
2019-05-13T16:43:55.121Z,72.35
2019-05-13T16:46:28.201Z,72.70
2019-05-13T16:49:01.411Z,73.90
2019-05-13T16:51:34.324Z,73.43
2019-05-13T16:54:06.995Z,73.03
2019-05-13T16:56:42.066Z,72.75
2019-05-13T16:59:13.001Z,72.51
2019-05-13T17:01:45.362Z,72.64
2019-05-13T17:04:22.741Z,72.86
2019-05-13T17:06:55.406Z,72.68
2019-05-13T17:09:28.632Z,70.92
2019-05-13T17:12:01.375Z,71.33
2019-05-13T17:14:33.301Z,72.19
2019-05-13T17:17:06.138Z,71.93
2019-05-13T17:19:42.307Z,71.74
2019-05-13T17:22:14.199Z,70.66
2019-05-13T17:24:47.403Z,70.23
2019-05-13T17:27:21.354Z,69.60
2019-05-13T17:29:53.222Z,70.91
2019-05-13T17:32:25.797Z,70.06
2019-05-13T17:34:57.398Z,69.36
2019-05-13T17:37:31.211Z,70.35
2019-05-13T17:40:02.497Z,69.95
2019-05-13T17:42:35.173Z,70.26
2019-05-13T17:45:13.011Z,69.00
2019-05-13T17:47:45.699Z,69.11
2019-05-13T17:50:17.818Z,69.49
2019-05-13T17:52:51.877Z,68.74
2019-05-13T17:55:25.447Z,68.52
2019-05-13T17:57:57.264Z,70.19
2019-05-13T18:00:28.909Z,70.83
2019-05-13T18:03:01.968Z,71.66
2019-05-13T18:05:34.158Z,72.58
2019-05-13T18:08:05.853Z,72.91
2019-05-13T18:10:38.446Z,73.05
2019-05-13T18:13:12.448Z,73.86
2019-05-13T18:15:44.043Z,75.07
2019-05-13T18:18:21.407Z,75.00
2019-05-13T18:20:52.239Z,76.10
2019-05-13T18:23:24.317Z,77.34
2019-05-13T18:25:56.387Z,79.40
2019-05-13T18:28:31.274Z,80.12
2019-05-13T18:31:02.842Z,80.87
2019-05-13T18:33:35.798Z,81.12
2019-05-13T18:36:07.623Z,81.08
2019-05-13T18:38:41.915Z,81.55
2019-05-13T18:41:13.603Z,80.87
2019-05-13T18:43:45.173Z,81.27
2019-05-13T18:46:16.763Z,81.66
2019-05-13T18:48:58.518Z,81.71
2019-05-13T18:51:25.808Z,79.67
2019-05-13T18:53:57.440Z,79.59
2019-05-13T18:56:32.312Z,79.44
2019-05-13T18:59:12.328Z,78.89
2019-05-13T19:01:42.964Z,77.85
2019-05-13T19:04:14.572Z,78.22
2019-05-13T19:06:46.288Z,78.87
2019-05-13T19:09:17.898Z,78.33
2019-05-13T19:11:53.186Z,78.65
2019-05-13T19:14:25.097Z,78.04
2019-05-13T19:16:56.651Z,78.53
2019-05-13T19:19:28.935Z,77.75
2019-05-13T19:22:02.185Z,76.75
2019-05-13T19:24:34.022Z,78.27
2019-05-13T19:27:07.611Z,78.40
2019-05-13T19:29:42.418Z,76.83
2019-05-13T19:32:16.177Z,77.98
2019-05-13T19:34:48.053Z,77.85
2019-05-13T19:37:22.228Z,78.15
2019-05-13T19:39:53.204Z,77.57
2019-05-13T19:42:24.896Z,77.49
2019-05-13T19:45:01.947Z,77.81
2019-05-13T19:47:38.050Z,75.95
2019-05-13T19:50:09.886Z,75.72
2019-05-13T19:52:42.564Z,77.32
2019-05-13T19:55:16.140Z,77.63
2019-05-13T19:57:47.795Z,77.64
2019-05-13T20:00:21.192Z,76.94
2019-05-13T20:02:53.036Z,76.34
2019-05-13T20:05:24.630Z,75.73
2019-05-13T20:07:56.231Z,75.17
2019-05-13T20:10:27.989Z,75.84
2019-05-13T20:13:01.712Z,75.64
2019-05-13T20:15:32.966Z,75.31
2019-05-13T20:18:04.714Z,75.62
2019-05-13T20:20:41.330Z,75.82
2019-05-13T20:23:12.955Z,76.08
2019-05-13T20:25:44.524Z,75.17
2019-05-13T20:28:16.079Z,75.40
2019-05-13T20:30:51.485Z,75.12
2019-05-13T20:33:23.014Z,75.64
2019-05-13T20:35:56.628Z,76.71
2019-05-13T20:38:31.861Z,76.10
2019-05-13T20:41:05.020Z,76.55
2019-05-13T20:43:36.598Z,76.60
2019-05-13T20:46:08.189Z,76.71
2019-05-13T20:48:41.165Z,77.81
2019-05-13T20:51:13.921Z,76.74
2019-05-13T20:53:47.504Z,76.57
2019-05-13T20:56:21.213Z,77.62
2019-05-13T20:58:57.775Z,76.85
2019-05-13T21:01:29.295Z,76.98
2019-05-13T21:04:01.771Z,77.53
2019-05-13T21:06:33.479Z,77.48
2019-05-13T21:09:06.408Z,76.91
2019-05-13T21:11:37.966Z,77.28
2019-05-13T21:14:09.524Z,77.72
2019-05-13T21:16:42.275Z,78.36
2019-05-13T21:19:13.809Z,78.59
2019-05-13T21:21:47.310Z,78.51
2019-05-13T21:24:21.339Z,79.51
2019-05-13T21:26:56.894Z,79.13
2019-05-13T21:29:35.006Z,79.73
2019-05-13T21:32:06.523Z,79.33
2019-05-13T21:34:38.070Z,79.92
2019-05-13T21:37:16.694Z,79.71
2019-05-13T21:39:48.259Z,79.78
2019-05-13T21:42:23.233Z,80.61
2019-05-13T21:44:55.290Z,79.70
2019-05-13T21:47:26.863Z,80.91
2019-05-13T21:49:58.443Z,80.10
2019-05-13T21:52:32.348Z,81.06
2019-05-13T21:55:05.593Z,80.79
2019-05-13T21:57:38.162Z,80.52
2019-05-13T22:00:12.043Z,80.27
2019-05-13T22:02:45.143Z,80.46
2019-05-13T22:05:17.728Z,80.60
2019-05-13T22:07:49.286Z,80.51
2019-05-13T22:10:21.617Z,81.13
2019-05-13T22:12:53.320Z,81.30
2019-05-13T22:15:26.837Z,81.55
2019-05-13T22:17:58.423Z,81.34
2019-05-13T22:20:33.052Z,81.34
2019-05-13T22:23:04.391Z,81.24
2019-05-13T22:25:43.702Z,81.81
2019-05-13T22:28:15.035Z,81.63
2019-05-13T22:30:46.640Z,81.92
2019-05-13T22:33:18.132Z,81.87
2019-05-13T22:35:52.245Z,82.08
2019-05-13T22:38:24.118Z,82.41
2019-05-13T22:40:55.672Z,82.33
2019-05-13T22:43:28.717Z,82.36
2019-05-13T22:46:00.289Z,83.34
2019-05-13T22:48:31.994Z,83.19
2019-05-13T22:51:03.514Z,83.39
2019-05-13T22:53:35.230Z,83.05
2019-05-13T22:56:08.759Z,83.48
2019-05-13T22:58:41.247Z,83.96
2019-05-13T23:01:12.849Z,84.59
2019-05-13T23:03:44.415Z,84.80
2019-05-13T23:06:16.012Z,84.44
2019-05-13T23:08:49.544Z,84.49
2019-05-13T23:11:21.942Z,84.67
2019-05-13T23:14:06.369Z,84.60
2019-05-13T23:16:26.777Z,84.61
2019-05-13T23:18:58.356Z,84.50
2019-05-13T23:21:31.252Z,84.67
2019-05-13T23:24:04.010Z,85.05
2019-05-13T23:26:36.616Z,85.24
2019-05-13T23:29:08.527Z,85.16
2019-05-13T23:31:41.523Z,85.38
2019-05-13T23:34:14.320Z,85.12
2019-05-13T23:36:45.959Z,85.01
2019-05-13T23:39:18.694Z,85.18
2019-05-13T23:41:52.330Z,85.29
2019-05-13T23:44:27.983Z,84.99
2019-05-13T23:46:58.857Z,84.89
2019-05-13T23:49:31.749Z,85.07
2019-05-13T23:52:03.407Z,85.16
2019-05-13T23:54:35.095Z,85.16
2019-05-13T23:57:06.644Z,85.29
2019-05-13T23:59:41.670Z,85.10
